• Join FlightAware (Why Join?)
  • Login
  • US Flag 
04:05PM EDT


 

Airport Tracker/Info


-or-


 

Live Flight TrackerFlight Track Log ✈ UAL481 ✈ 13-Jun-2013 ✈ KALB - KORD

Flight Track Log - Related Links

Times and Time Zones

All times are in EDT time to prevent confusion due to time zone crossing. See the UAL481 flight status page for this flight to view local times or setup timezone preferences in your user account.

Time Position Orientation Groundspeed Altitude Reporting Facility
EDT Latitude Longitude Course Direction KTS MPH feet Rate Location/Type
06:20PM 42.7672 -73.8061 324° Northwest 139 160 1,500  Level Boston Center
06:21PM 42.8106 -73.8439 327° Northwest 210 242 3,000 2,160 Climbing Boston Center
06:23PM 42.8029 -74.1659 284° West  Level FlightAware Approximate
06:23PM 42.8781 -73.9417 313° West 282 325 6,600  Level Boston Center
06:24PM 42.8254 -74.2897 284° West  Level FlightAware Approximate
06:24PM 42.9294 -74.0139 314° West 282 325 9,900  Level Boston Center
06:25PM 42.8468 -74.4140 283° West  Level FlightAware Approximate
06:25PM 43.0011 -74.1036 318° Northwest 303 349 12,700  Level Boston Center
06:26PM 42.8698 -74.5365 324° Northwest  Level FlightAware Approximate
06:26PM 43.0644 -74.1822 318° Northwest 325 374 15,200  Level Boston Center
06:27PM 43.1103 -74.3058 297° West 327 376 17,700 2,280 Climbing Boston Center
06:28PM 43.1144 -74.4311 273° West 342 394 19,800 1,980 Climbing Boston Center
06:29PM 43.1203 -74.5736 273° West 366 421 21,700 1,800 Climbing Boston Center
06:30PM 43.1236 -74.7186 272° West 379 436 23,500 1,920 Climbing Boston Center
06:31PM 43.1289 -74.8697 273° West 390 449 25,600 1,800 Climbing Boston Center
06:32PM 43.1508 -75.0128 282° West 390 449 27,100 1,500 Climbing Boston Center
06:33PM 43.1869 -75.1625 288° West 390 449 28,700 1,560 Climbing Boston Center
06:34PM 43.2269 -75.3125 290° West 406 467 30,300 1,380 Climbing Boston Center
06:35PM 43.2372 -75.4842 275° West 412 474 31,500 1,800 Climbing Boston Center
06:36PM 43.2353 -75.6350 269° West 412 474 34,000 1,860 Climbing Boston Center
06:37PM 43.2333 -75.7747 269° West 399 459 35,300 960 Climbing Boston Center
06:38PM 43.2311 -75.9197 269° West 385 443 36,000 300 Climbing Boston Center
06:39PM 43.2286 -76.0622 269° West 380 437 36,000 480 Level Boston Center
06:40PM 43.2283 -76.2047 270° West 380 437 37,000 660 Climbing Boston Center
06:41PM 43.2167 -76.4000 265° West 380 437 37,800 360 Climbing Toronto Center
06:42PM 43.2203 -76.5175 272° West 372 428 37,900 60 Climbing Cleveland Center
06:43PM 43.2192 -76.6628 269° West 383 441 38,000  Climbing Cleveland Center
06:44PM 43.2158 -76.8142 268° West 388 447 38,000  Level Cleveland Center
06:45PM 43.2122 -76.9625 268° West 393 452 38,000  Level Cleveland Center
06:46PM 43.2069 -77.1281 268° West 393 452 38,000  Level Cleveland Center
06:47PM 43.2050 -77.2792 269° West 398 458 38,000  Level Cleveland Center
06:48PM 43.1989 -77.4333 267° West 404 465 38,000  Level Cleveland Center
06:49PM 43.1944 -77.5844 268° West 404 465 38,000  Level Cleveland Center
06:50PM 43.1900 -77.7328 268° West 404 465 38,000  Level Cleveland Center
06:51PM 43.1853 -77.8839 268° West 404 465 38,000 -60 Level Cleveland Center
06:52PM 43.1825 -78.0350 269° West 404 465 37,900  Descending Cleveland Center
06:53PM 43.1772 -78.1833 267° West 404 465 38,000  Climbing Cleveland Center
06:54PM 43.1722 -78.3400 268° West 404 465 38,000  Level Cleveland Center
06:55PM 43.1667 -78.4911 267° West 404 465 38,100  Climbing Cleveland Center
06:56PM 43.1608 -78.6422 267° West 404 465 38,000 -60 Descending Cleveland Center
06:57PM 43.1550 -78.8017 267° West 404 465 38,000  Level Cleveland Center
06:58PM 43.1489 -78.9528 267° West 404 465 38,000  Level Cleveland Center
06:58PM 43.1333 -78.9667 213° Southwest 410 472 38,000  Level Toronto Center
06:59PM 43.1333 -79.1333 270° West 410 472 38,000  Level Toronto Center
07:00PM 43.1167 -79.2833 261° West 410 472 38,000  Level Toronto Center
07:01PM 43.1167 -79.4500 270° West 420 483 38,000  Level Toronto Center
07:02PM 43.1167 -79.5833 270° West 410 472 38,000  Level Toronto Center
07:03PM 43.1000 -79.7667 263° West 420 483 38,000  Level Toronto Center
07:04PM 43.1000 -79.9000 270° West 420 483 38,000  Level Toronto Center
07:05PM 43.0833 -80.0833 263° West 420 483 38,000  Level Toronto Center
07:06PM 43.0833 -80.2500 270° West 420 483 38,000  Level Toronto Center
07:07PM 43.0667 -80.3833 260° West 420 483 38,000  Level Toronto Center
07:08PM 43.0667 -80.5500 270° West 420 483 38,000  Level Toronto Center
07:09PM 43.0500 -80.7000 261° West 410 472 38,000  Level Toronto Center
07:10PM 43.0333 -80.8667 262° West 410 472 38,000  Level Toronto Center
07:11PM 43.0333 -81.0167 270° West 420 483 38,000  Level Toronto Center
07:12PM 43.0167 -81.1833 262° West 420 483 38,000  Level Toronto Center
07:13PM 43.0167 -81.3500 270° West 420 483 38,000  Level Toronto Center
07:14PM 43.0167 -81.5000 270° West 420 483 38,000  Level Toronto Center
07:15PM 43.0167 -81.6667 270° West 420 483 38,000  Level Toronto Center
07:16PM 43.0167 -81.8167 270° West 420 483 38,000  Level Toronto Center
07:17PM 43.0000 -81.9833 262° West 420 483 38,000  Level Toronto Center
07:18PM 43.0000 -82.1333 270° West 420 483 38,000  Level Toronto Center
07:19PM 43.0000 -82.3000 270° West 430 495 38,000  Level Toronto Center
07:20PM 43.0000 -82.4833 270° West 430 495 38,000 -360 Level Toronto Center
07:21PM 43.0047 -82.6331 273° West 428 493 37,400 -840 Descending Cleveland Center
07:22PM 42.9997 -82.7917 268° West 428 493 36,400 -1,020 Descending Cleveland Center
07:23PM 42.9944 -82.9533 267° West 428 493 35,400 -1,020 Descending Cleveland Center
07:24PM 42.9889 -83.1178 267° West 428 493 34,400 -1,020 Descending Cleveland Center
07:25PM 42.9831 -83.2822 267° West 433 498 33,400 -1,020 Descending Cleveland Center
07:26PM 42.9772 -83.4408 267° West 433 498 32,400 -720 Descending Cleveland Center
07:27PM 42.9708 -83.6053 267° West 432 497 32,000 -240 Descending Cleveland Center
07:28PM 42.9622 -83.7694 266° West 438 504 32,000  Level Cleveland Center
07:29PM 42.9472 -83.9331 263° West 438 504 32,000  Level Cleveland Center
07:31PM 42.9000 -84.2833 260° West 440 506 32,000  Level Toronto Center
07:33PM 42.8961 -84.4606 268° West 443 510 32,000  Level Chicago Center
07:34PM 42.8803 -84.6219 262° West 433 498 32,000  Level Chicago Center
07:35PM 42.8639 -84.7825 262° West 428 493 32,000  Level Chicago Center
07:36PM 42.8464 -84.9428 262° West 428 493 32,000  Level Chicago Center
07:37PM 42.8261 -85.1369 262° West 431 496 32,000  Level Chicago Center
07:38PM 42.8083 -85.2956 261° West 419 482 32,000 -600 Level Chicago Center
07:39PM 42.7922 -85.4494 262° West 418 481 30,800 -1,620 Descending Chicago Center
07:40PM 42.7669 -85.6050 258° West 420 483 28,700 -1,980 Descending Chicago Center
07:41PM 42.7383 -85.7631 256° West 425 489 26,700 -1,980 Descending Chicago Center
07:42PM 42.7086 -85.9225 256° West 429 494 24,700 -1,980 Descending Chicago Center
07:43PM 42.6803 -86.0811 256° West 429 494 22,700 -2,040 Descending Chicago Center
07:44PM 42.6533 -86.2289 256° West 407 468 20,600 -2,280 Descending Chicago Center
07:45PM 42.6200 -86.4028 255° West 396 456 18,000 -2,100 Descending Chicago Center
07:46PM 42.5933 -86.5436 256° West 386 444 16,300 -1,560 Descending Chicago Center
07:47PM 42.5678 -86.6794 256° West 376 433 14,800 -1,500 Descending Chicago Center
07:48PM 42.5372 -86.8142 253° West 374 430 13,300 -1,500 Descending Chicago Center
07:49PM 42.5028 -86.9425 250° West 364 419 11,800 -1,440 Descending Chicago Center
07:50PM 42.4667 -87.0681 249° West 358 412 10,400 -900 Descending Chicago Center
07:51PM 42.4256 -87.2194 250° West 359 413 10,000 -240 Descending Chicago Center
07:52PM 42.3906 -87.3436 249° West 354 407 10,000  Level Chicago Center
07:53PM 42.3572 -87.4639 249° West 357 411 10,000  Level Chicago Center
07:54PM 42.3053 -87.5756 238° Southwest 368 423 10,000 -360 Level Chicago Center
07:55PM 42.2186 -87.6614 216° Southwest 322 371 9,300 -1,020 Descending Chicago Center
07:56PM 42.1511 -87.7308 217° Southwest 308 354 7,900 -1,140 Descending Chicago Center
07:57PM 42.1006 -87.8172 232° Southwest 303 349 7,000 -540 Descending Chicago Center
07:58PM 42.0667 -87.8833 235° Southwest 285 328 7,000 -600 Level Chicago TRACON
08:03PM 42.0314 -88.2378 262° West 191 220 4,000 -600 Descending Chicago Center
08:04PM 41.9853 -88.2297 173° South 206 237 4,000 -60 Level Chicago Center
08:05PM 41.9686 -88.1486 105° East 197 227 3,900 -480 Descending Chicago Center
08:05PM 41.9667 -88.1167 95° East 194 223 3,300 -1,380 Descending Chicago TRACON